Fort Blackmore, Virginia
Current Conditions -  °F | °C
As of 1:35 AM on Sunday 21 Dec 2014 (Local Time) from KLNP Reporting Station
Clear Clear  
Wind Chill: 32°   Ceiling: Unl
Heat Index: 32°   Visibility: 10mi
Dew Point: 32°   Wind: 0mph
Humidity: 100%   Direction: NA
Pressure: 30.2"   Gusts: NA
Location:  36.77°N, 82.59°W
Report Text: KLNP 210635Z AUTO 00000KT 10SM CLR 00/00 A3020 RMK AO2
Loading
Personal Weather Stations






























Interactive Weather Map New forecast layout! Learn more

10-Day Weather Forecast

Advertisements
Track Severe Weather on mobile